Time;durP1;ratioP1;P1;durP2;ratioP2;P2;SDS_P1;SDS_P2;PMS_P1;PMS_P2;Temp;Humidity;BMP_temperature;BMP_pressure;BME280_temperature;BME280_humidity;BME280_pressure;Samples;Min_cycle;Max_cycle;Signal;HPM_P1;HPM_P2
2022/09/26 00:01:12;;;;;;;3.92;1.10;;;;;;;;;;4999396;28;20027;-86
2022/09/26 00:03:37;;;;;;;1.35;1.20;;;;;;;;;;4982107;28;20026;-85
2022/09/26 00:06:05;;;;;;;3.33;1.30;;;;;;;;;;4998330;28;20446;-85
2022/09/26 00:08:31;;;;;;;1.48;1.17;;;;;;;;;;4999341;28;20049;-86
2022/09/26 00:10:59;;;;;;;1.90;1.40;;;;;;;;;;4998573;28;20042;-86
2022/09/26 00:13:26;;;;;;;2.78;1.50;;;;;;;;;;4998882;28;20031;-86
2022/09/26 00:15:53;;;;;;;3.15;1.50;;;;;;;;;;4997791;28;20030;-85
2022/09/26 00:18:19;;;;;;;2.78;1.40;;;;;;;;;;4997731;28;20030;-85
2022/09/26 00:20:44;;;;;;;3.30;2.00;;;;;;;;;;4998602;28;20029;-85
2022/09/26 00:23:10;;;;;;;3.13;2.08;;;;;;;;;;4998677;28;20053;-86
2022/09/26 00:25:35;;;;;;;3.22;2.00;;;;;;;;;;4998209;28;20092;-86
2022/09/26 00:28:01;;;;;;;4.07;1.92;;;;;;;;;;4998797;28;20072;-85
2022/09/26 00:30:27;;;;;;;2.28;1.83;;;;;;;;;;4998574;28;20058;-86
2022/09/26 00:32:53;;;;;;;2.00;1.70;;;;;;;;;;4998555;28;20023;-85
2022/09/26 00:35:19;;;;;;;1.92;1.42;;;;;;;;;;4998213;28;20416;-85
2022/09/26 00:37:45;;;;;;;3.25;1.73;;;;;;;;;;4998428;28;20026;-86
2022/09/26 00:40:11;;;;;;;3.80;1.63;;;;;;;;;;4998430;28;20034;-85
2022/09/26 00:42:36;;;;;;;2.00;1.60;;;;;;;;;;4998427;28;20030;-86
2022/09/26 00:45:02;;;;;;;2.20;1.58;;;;;;;;;;4980394;28;20037;-86
2022/09/26 00:47:41;;;;;;;2.30;1.70;;;;;;;;;;4998324;28;20399;-86
2022/09/26 00:50:12;;;;;;;4.47;1.50;;;;;;;;;;4981060;28;20129;-86
2022/09/26 00:53:04;;;;;;;4.07;1.75;;;;;;;;;;4998516;28;20041;-87
2022/09/26 00:55:33;;;;;;;2.50;1.40;;;;;;;;;;5013274;28;20034;-86
2022/09/26 00:58:05;;;;;;;2.40;1.70;;;;;;;;;;4998643;28;20038;-86
2022/09/26 01:00:31;;;;;;;3.08;1.50;;;;;;;;;;4998393;28;20058;-86
2022/09/26 01:02:57;;;;;;;3.58;1.50;;;;;;;;;;4997033;28;20154;-85
2022/09/26 01:05:23;;;;;;;8.30;1.60;;;;;;;;;;4995433;28;20045;-85
2022/09/26 01:07:51;;;;;;;3.55;1.58;;;;;;;;;;4978905;28;20030;-85
2022/09/26 01:10:17;;;;;;;3.92;1.42;;;;;;;;;;4996401;28;20084;-85
2022/09/26 01:12:42;;;;;;;1.90;1.40;;;;;;;;;;4995226;28;20360;-85
2022/09/26 01:15:09;;;;;;;2.08;1.50;;;;;;;;;;4977852;28;20025;-85
2022/09/26 01:17:41;;;;;;;5.43;1.50;;;;;;;;;;4962294;28;20019;-85
2022/09/26 01:20:27;;;;;;;1.70;1.40;;;;;;;;;;4978665;28;20112;-85
2022/09/26 01:23:11;;;;;;;1.77;1.30;;;;;;;;;;4995520;28;20026;-85
2022/09/26 01:25:55;;;;;;;2.63;1.52;;;;;;;;;;4977675;28;20046;-85
2022/09/26 01:28:32;;;;;;;;;;;;;;;;;;4978937;28;20089;-85
2022/09/26 01:31:22;;;;;;;2.67;1.50;;;;;;;;;;4995204;28;19932;-85
2022/09/26 01:34:34;;;;;;;3.47;1.30;;;;;;;;;;4977864;28;20434;-85
2022/09/26 01:37:08;;;;;;;2.70;1.42;;;;;;;;;;4977153;28;20143;-85
2022/09/26 01:39:56;;;;;;;1.85;1.50;;;;;;;;;;4978071;28;20034;-85
2022/09/26 01:42:44;;;;;;;1.80;1.50;;;;;;;;;;4978159;28;20581;-85
2022/09/26 01:45:16;;;;;;;3.45;1.38;;;;;;;;;;4961324;28;20048;-85
2022/09/26 01:48:08;;;;;;;1.80;1.27;;;;;;;;;;4977978;28;20375;-85
2022/09/26 01:50:44;;;;;;;1.45;1.23;;;;;;;;;;4978705;28;20048;-85
2022/09/26 01:53:47;;;;;;;1.85;1.38;;;;;;;;;;4995797;28;20044;-85
2022/09/26 01:56:17;;;;;;;4.57;1.60;;;;;;;;;;4969656;28;20105;-86
2022/09/26 01:58:52;;;;;;;2.92;1.70;;;;;;;;;;5010468;28;20037;-85
2022/09/26 02:01:21;;;;;;;2.60;1.48;;;;;;;;;;4978218;28;20101;-85
2022/09/26 02:03:51;;;;;;;2.08;1.50;;;;;;;;;;5010929;28;20030;-85
2022/09/26 02:06:33;;;;;;;2.08;1.50;;;;;;;;;;4977457;28;20031;-86
2022/09/26 02:09:07;;;;;;;4.20;1.30;;;;;;;;;;5010547;28;20117;-85
2022/09/26 02:11:36;;;;;;;1.77;1.23;;;;;;;;;;4977314;28;20494;-85
2022/09/26 02:14:12;;;;;;;1.98;1.55;;;;;;;;;;4977586;28;20565;-85
2022/09/26 02:16:46;;;;;;;1.50;1.30;;;;;;;;;;4977986;28;20089;-85
2022/09/26 02:19:22;;;;;;;1.88;1.50;;;;;;;;;;4995459;28;20095;-85
2022/09/26 02:21:47;;;;;;;1.50;1.30;;;;;;;;;;4977764;28;20502;-85
2022/09/26 02:24:13;;;;;;;2.05;1.50;;;;;;;;;;5009638;28;20050;-85
2022/09/26 02:26:41;;;;;;;2.25;1.27;;;;;;;;;;4977456;28;20121;-85
2022/09/26 02:29:08;;;;;;;1.45;1.30;;;;;;;;;;5010586;28;20029;-84
2022/09/26 02:31:38;;;;;;;2.63;1.40;;;;;;;;;;4977660;28;20090;-85
2022/09/26 02:34:04;;;;;;;1.67;1.25;;;;;;;;;;4977525;28;20030;-85
2022/09/26 02:36:32;;;;;;;2.10;1.40;;;;;;;;;;5010434;28;20470;-85
2022/09/26 02:38:58;;;;;;;3.50;1.48;;;;;;;;;;4977696;28;20030;-85
2022/09/26 02:42:13;;;;;;;1.73;1.30;;;;;;;;;;4963794;28;20117;-85
2022/09/26 02:44:48;;;;;;;4.43;1.53;;;;;;;;;;4980976;28;20080;-85
2022/09/26 02:47:36;;;;;;;2.60;1.30;;;;;;;;;;4998534;28;20599;-85
2022/09/26 02:50:18;;;;;;;1.65;1.33;;;;;;;;;;4981428;28;20042;-85
2022/09/26 02:53:11;;;;;;;4.85;1.30;;;;;;;;;;4980680;28;20034;-85
2022/09/26 02:56:04;;;;;;;3.00;1.70;;;;;;;;;;4980942;28;20447;-85
2022/09/26 02:58:58;;;;;;;2.47;1.60;;;;;;;;;;4981061;28;20391;-86
2022/09/26 03:01:48;;;;;;;2.35;1.35;;;;;;;;;;4981161;28;20034;-85
2022/09/26 03:04:25;;;;;;;2.65;1.45;;;;;;;;;;4980422;28;20516;-85
2022/09/26 03:06:56;;;;;;;1.83;1.30;;;;;;;;;;4980784;28;20038;-85
2022/09/26 03:09:24;;;;;;;1.27;1.13;;;;;;;;;;4980893;28;20168;-85
2022/09/26 03:11:52;;;;;;;1.70;1.33;;;;;;;;;;4963448;28;20030;-85
2022/09/26 03:14:21;;;;;;;2.58;1.40;;;;;;;;;;4980196;28;20030;-86
2022/09/26 03:16:50;;;;;;;2.80;1.48;;;;;;;;;;5013305;28;20028;-85
2022/09/26 03:19:26;;;;;;;2.10;1.50;;;;;;;;;;4980547;28;20034;-85
2022/09/26 03:21:53;;;;;;;3.00;1.30;;;;;;;;;;5013424;28;20049;-85
2022/09/26 03:24:19;;;;;;;3.47;1.00;;;;;;;;;;5012418;28;20121;-85
2022/09/26 03:26:46;;;;;;;2.45;1.25;;;;;;;;;;4980448;28;20029;-85
2022/09/26 03:29:12;;;;;;;2.03;1.40;;;;;;;;;;4980616;28;20026;-85
2022/09/26 03:31:39;;;;;;;1.60;1.40;;;;;;;;;;4981059;28;20018;-85
2022/09/26 03:34:06;;;;;;;2.33;1.30;;;;;;;;;;4979917;28;20529;-85
2022/09/26 03:36:32;;;;;;;1.63;1.13;;;;;;;;;;5012729;28;20030;-85
2022/09/26 03:38:59;;;;;;;2.35;1.60;;;;;;;;;;4980314;28;20029;-85
2022/09/26 03:41:48;;;;;;;2.22;1.50;;;;;;;;;;4992623;28;20031;-86
2022/09/26 03:44:24;;;;;;;1.70;1.40;;;;;;;;;;4979717;28;20026;-87
2022/09/26 03:47:09;;;;;;;2.05;1.33;;;;;;;;;;4998591;28;20181;-85
2022/09/26 03:49:39;;;;;;;2.00;1.60;;;;;;;;;;5013880;28;20034;-85
2022/09/26 03:52:08;;;;;;;1.50;1.20;;;;;;;;;;4980948;28;20018;-86
2022/09/26 03:54:33;;;;;;;1.48;1.27;;;;;;;;;;4979557;28;20022;-85
2022/09/26 03:56:59;;;;;;;2.80;1.23;;;;;;;;;;4979575;28;20038;-84
2022/09/26 03:59:25;;;;;;;1.40;1.30;;;;;;;;;;4979312;28;20073;-84
2022/09/26 04:01:51;;;;;;;3.60;1.40;;;;;;;;;;5012387;28;20030;-84
2022/09/26 04:04:16;;;;;;;4.35;1.85;;;;;;;;;;4978904;28;20030;-84
2022/09/26 04:06:43;;;;;;;2.33;1.70;;;;;;;;;;4979827;28;20030;-84
2022/09/26 04:09:10;;;;;;;3.22;1.90;;;;;;;;;;4979721;28;20026;-84
2022/09/26 04:11:36;;;;;;;1.33;1.20;;;;;;;;;;4978342;28;20428;-85
2022/09/26 04:14:04;;;;;;;2.28;1.50;;;;;;;;;;5011770;28;20121;-85
2022/09/26 04:16:32;;;;;;;2.72;1.40;;;;;;;;;;4979086;28;20034;-85
2022/09/26 04:19:05;;;;;;;3.20;1.40;;;;;;;;;;4978863;28;20033;-84
2022/09/26 04:21:34;;;;;;;4.22;1.40;;;;;;;;;;5014855;28;20418;-84
2022/09/26 04:24:01;;;;;;;3.15;2.13;;;;;;;;;;4998294;28;20486;-84
2022/09/26 04:26:27;;;;;;;3.67;2.38;;;;;;;;;;4998880;28;20034;-85
2022/09/26 04:28:56;;;;;;;5.38;2.47;;;;;;;;;;4998316;28;20121;-85
2022/09/26 04:31:27;;;;;;;4.45;2.30;;;;;;;;;;4998700;28;20109;-85
2022/09/26 04:34:00;;;;;;;5.15;1.92;;;;;;;;;;4998542;28;20034;-85
2022/09/26 04:36:26;;;;;;;3.35;1.88;;;;;;;;;;4998789;28;20056;-85
2022/09/26 04:38:51;;;;;;;7.03;1.77;;;;;;;;;;4998886;28;20413;-85
2022/09/26 04:41:20;;;;;;;3.45;2.00;;;;;;;;;;4998305;28;20033;-85
2022/09/26 04:43:47;;;;;;;3.75;2.00;;;;;;;;;;4998127;28;20506;-84
2022/09/26 04:46:20;;;;;;;2.85;1.85;;;;;;;;;;4997606;28;20034;-85
2022/09/26 04:48:47;;;;;;;4.47;1.95;;;;;;;;;;4998352;28;20037;-85
2022/09/26 04:51:18;;;;;;;4.28;2.28;;;;;;;;;;4998553;28;20036;-85
2022/09/26 04:53:45;;;;;;;4.32;2.10;;;;;;;;;;4999161;28;20025;-85
2022/09/26 04:56:19;;;;;;;2.60;2.00;;;;;;;;;;4998392;28;20029;-85
2022/09/26 04:58:46;;;;;;;3.38;2.38;;;;;;;;;;4998686;28;20060;-85
2022/09/26 05:01:17;;;;;;;2.83;2.00;;;;;;;;;;4998987;28;20026;-85
2022/09/26 05:04:11;;;;;;;2.72;1.90;;;;;;;;;;5011259;28;20342;-87
2022/09/26 05:06:38;;;;;;;5.00;3.10;;;;;;;;;;4998997;28;20018;-87
2022/09/26 05:09:05;;;;;;;5.25;3.70;;;;;;;;;;4983768;28;20030;-87
2022/09/26 05:11:47;;;;;;;5.35;2.20;;;;;;;;;;4998572;28;20443;-86
2022/09/26 05:14:13;;;;;;;3.85;2.20;;;;;;;;;;4983807;28;20061;-86
2022/09/26 05:16:38;;;;;;;2.80;1.98;;;;;;;;;;5000018;28;20029;-86
2022/09/26 05:19:05;;;;;;;2.75;1.75;;;;;;;;;;5000234;28;20037;-85
2022/09/26 05:21:34;;;;;;;2.88;1.50;;;;;;;;;;4999079;28;20025;-86
2022/09/26 05:26:50;;;;;;;1.58;1.10;;;;;;;;;;5002980;28;20049;-88
2022/09/26 05:29:18;;;;;;;1.83;1.30;;;;;;;;;;5000195;28;20557;-85
2022/09/26 05:31:50;;;;;;;4.53;2.00;;;;;;;;;;5000519;28;20032;-86
2022/09/26 05:34:16;;;;;;;3.83;2.80;;;;;;;;;;4996880;28;20025;-85
2022/09/26 05:36:42;;;;;;;2.05;1.70;;;;;;;;;;4997746;28;20482;-85
2022/09/26 05:41:53;;;;;;;1.88;1.40;;;;;;;;;;4999326;28;20030;-84
2022/09/26 05:44:19;;;;;;;3.00;1.30;;;;;;;;;;4998067;28;20513;-85
2022/09/26 05:46:46;;;;;;;2.20;1.58;;;;;;;;;;4998801;28;20112;-85
2022/09/26 05:49:13;;;;;;;3.63;2.65;;;;;;;;;;4997634;28;20057;-85
2022/09/26 05:51:40;;;;;;;6.68;3.30;;;;;;;;;;4997520;28;20037;-84
2022/09/26 05:54:07;;;;;;;8.30;4.80;;;;;;;;;;4997432;28;20555;-84
2022/09/26 05:56:36;;;;;;;5.65;3.40;;;;;;;;;;5001199;28;20030;-85
2022/09/26 05:59:10;;;;;;;4.28;2.97;;;;;;;;;;5003655;28;20046;-86
2022/09/26 06:01:56;;;;;;;5.40;4.18;;;;;;;;;;5000029;28;20048;-85
2022/09/26 06:04:36;;;;;;;3.78;2.58;;;;;;;;;;4980058;28;20065;-84
2022/09/26 06:07:20;;;;;;;4.05;3.00;;;;;;;;;;4984791;28;20449;-88
2022/09/26 06:09:46;;;;;;;7.10;4.38;;;;;;;;;;4982778;28;20091;-84
2022/09/26 06:12:21;;;;;;;5.05;2.75;;;;;;;;;;4982110;28;20037;-84
2022/09/26 06:14:46;;;;;;;3.85;2.45;;;;;;;;;;5000509;28;20026;-85
2022/09/26 06:17:12;;;;;;;5.40;2.22;;;;;;;;;;4968384;28;20037;-84
2022/09/26 06:19:38;;;;;;;7.18;4.20;;;;;;;;;;5012375;28;20038;-85
2022/09/26 06:22:05;;;;;;;5.85;4.07;;;;;;;;;;4993496;28;20050;-85
2022/09/26 06:24:31;;;;;;;4.72;2.85;;;;;;;;;;4988891;28;20418;-84
2022/09/26 06:26:59;;;;;;;5.43;2.33;;;;;;;;;;4988374;28;20037;-89
2022/09/26 06:29:24;;;;;;;5.72;3.70;;;;;;;;;;4972269;28;20030;-86
2022/09/26 06:31:50;;;;;;;7.25;6.10;;;;;;;;;;4989326;28;20030;-85
2022/09/26 06:34:35;;;;;;;4.88;2.80;;;;;;;;;;5004181;28;20096;-85
2022/09/26 06:37:19;;;;;;;5.63;3.10;;;;;;;;;;4986441;28;20467;-86
2022/09/26 06:39:44;;;;;;;5.72;3.22;;;;;;;;;;4988661;28;20033;-85
2022/09/26 06:42:10;;;;;;;5.53;3.30;;;;;;;;;;4972097;28;20045;-85
2022/09/26 06:44:54;;;;;;;5.90;3.15;;;;;;;;;;5004081;28;20044;-86
2022/09/26 06:47:22;;;;;;;5.43;2.60;;;;;;;;;;5002524;28;20030;-88
2022/09/26 06:49:50;;;;;;;4.05;1.85;;;;;;;;;;4972193;28;20038;-86
2022/09/26 06:52:33;;;;;;;3.35;1.98;;;;;;;;;;4981105;28;20126;-86
2022/09/26 06:55:03;;;;;;;3.63;2.10;;;;;;;;;;4980671;28;20026;-86
2022/09/26 06:57:39;;;;;;;2.58;1.90;;;;;;;;;;4980688;28;20026;-86
2022/09/26 07:00:07;;;;;;;4.13;2.10;;;;;;;;;;4980975;28;20113;-84
2022/09/26 07:02:52;;;;;;;2.10;1.80;;;;;;;;;;4999964;28;20049;-85
2022/09/26 07:05:25;;;;;;;6.47;2.10;;;;;;;;;;4999181;28;20032;-86
2022/09/26 07:07:53;;;;;;;4.13;1.92;;;;;;;;;;4965844;28;20034;-85
2022/09/26 07:10:34;;;;;;;4.93;2.28;;;;;;;;;;4983070;28;20227;-84
2022/09/26 07:13:08;;;;;;;4.53;3.15;;;;;;;;;;4981095;28;20383;-85
2022/09/26 07:15:35;;;;;;;4.38;3.30;;;;;;;;;;4982177;28;20053;-85
2022/09/26 07:18:10;;;;;;;3.90;2.90;;;;;;;;;;4982539;28;20132;-85
2022/09/26 07:20:53;;;;;;;2.85;1.98;;;;;;;;;;4999351;28;20037;-85
2022/09/26 07:23:42;;;;;;;4.30;1.92;;;;;;;;;;4982709;28;20177;-85
2022/09/26 07:26:07;;;;;;;4.07;2.00;;;;;;;;;;4981148;28;20069;-85
2022/09/26 07:28:33;;;;;;;3.22;2.20;;;;;;;;;;4981787;28;20038;-85
2022/09/26 07:31:00;;;;;;;3.90;2.85;;;;;;;;;;4982109;28;20101;-85
2022/09/26 07:33:39;;;;;;;7.03;4.72;;;;;;;;;;4999368;28;20022;-85
2022/09/26 07:36:08;;;;;;;5.35;3.92;;;;;;;;;;4979504;28;20038;-86
2022/09/26 07:38:34;;;;;;;7.15;4.32;;;;;;;;;;4979813;28;20097;-87
2022/09/26 07:40:59;;;;;;;6.55;4.68;;;;;;;;;;4979764;28;20050;-86
2022/09/26 07:43:25;;;;;;;3.25;2.70;;;;;;;;;;4980413;28;20081;-86
2022/09/26 07:51:42;;;;;;;6.68;4.50;;;;;;;;;;4998511;28;20073;-86
2022/09/26 07:54:13;;;;;;;6.10;4.10;;;;;;;;;;4980548;28;20053;-86
2022/09/26 07:56:50;;;;;;;4.07;2.60;;;;;;;;;;4999090;28;20112;-86
2022/09/26 07:59:37;;;;;;;3.78;1.70;;;;;;;;;;4998536;28;20046;-86
2022/09/26 08:02:22;;;;;;;5.10;2.78;;;;;;;;;;4981407;28;20023;-87
2022/09/26 08:04:47;;;;;;;4.50;2.55;;;;;;;;;;4979904;28;20053;-87
2022/09/26 08:07:13;;;;;;;3.53;2.53;;;;;;;;;;4980867;28;20050;-86
2022/09/26 08:09:51;;;;;;;3.08;2.10;;;;;;;;;;4980582;28;20033;-86
2022/09/26 08:12:47;;;;;;;5.75;2.30;;;;;;;;;;4996564;28;20034;-86
2022/09/26 08:15:27;;;;;;;3.90;2.42;;;;;;;;;;4980198;28;20030;-85
2022/09/26 08:18:04;;;;;;;3.13;2.05;;;;;;;;;;4980581;28;20117;-86
2022/09/26 08:20:30;;;;;;;3.60;2.22;;;;;;;;;;4980810;28;20056;-86
2022/09/26 08:22:56;;;;;;;4.95;2.90;;;;;;;;;;4980539;28;20042;-86
2022/09/26 08:25:21;;;;;;;4.65;3.03;;;;;;;;;;4979394;28;20137;-86
2022/09/26 08:27:51;;;;;;;4.22;3.20;;;;;;;;;;4997111;28;20034;-86
2022/09/26 08:30:18;;;;;;;5.30;3.63;;;;;;;;;;4979599;28;20030;-86
2022/09/26 08:32:52;;;;;;;3.47;2.60;;;;;;;;;;4979489;28;20027;-86
2022/09/26 08:35:17;;;;;;;5.75;2.40;;;;;;;;;;4963303;28;20037;-87
2022/09/26 08:38:07;;;;;;;3.10;2.05;;;;;;;;;;4997206;28;20128;-85
2022/09/26 08:41:06;;;;;;;3.40;1.80;;;;;;;;;;4997048;28;20042;-87
2022/09/26 08:44:10;;;;;;;;;;;;;;;;;;4968511;28;20394;-85
2022/09/26 08:47:00;;;;;;;4.65;1.80;;;;;;;;;;4999023;28;19916;-86
2022/09/26 08:49:49;;;;;;;2.50;1.90;;;;;;;;;;4981345;28;20495;-86
2022/09/26 08:52:27;;;;;;;3.88;2.20;;;;;;;;;;4980575;28;20030;-85
2022/09/26 08:54:56;;;;;;;2.30;1.50;;;;;;;;;;4979658;28;20072;-85
2022/09/26 08:58:03;;;;;;;3.75;1.70;;;;;;;;;;4981007;28;20026;-86
2022/09/26 09:00:32;;;;;;;2.90;1.85;;;;;;;;;;4941391;29;20158;-86
2022/09/26 09:03:20;;;;;;;;;;;;;;;;;;4926044;29;20027;-85
2022/09/26 09:06:07;;;;;;;1.95;1.50;;;;;;;;;;4966456;28;20339;-86
2022/09/26 09:08:35;;;;;;;5.30;2.70;;;;;;;;;;4980520;28;20022;-86
2022/09/26 09:11:36;;;;;;;5.13;2.05;;;;;;;;;;4979894;28;20058;-86
2022/09/26 09:14:07;;;;;;;3.20;2.20;;;;;;;;;;4980057;28;20034;-85
2022/09/26 09:17:25;;;;;;;3.67;2.03;;;;;;;;;;4997688;28;20055;-86
2022/09/26 09:20:38;;;;;;;3.95;1.90;;;;;;;;;;4987411;28;20529;-86
2022/09/26 09:23:43;;;;;;;2.55;1.80;;;;;;;;;;4980706;28;20030;-86
2022/09/26 09:26:27;;;;;;;2.38;1.90;;;;;;;;;;4980122;28;20026;-86
2022/09/26 09:29:23;;;;;;;2.72;1.80;;;;;;;;;;4980401;28;20487;-86
2022/09/26 09:32:16;;;;;;;2.33;1.80;;;;;;;;;;4969547;28;20038;-86
2022/09/26 09:34:56;;;;;;;2.30;1.73;;;;;;;;;;4979891;28;20292;-85
2022/09/26 09:37:46;;;;;;;2.38;1.55;;;;;;;;;;4998294;28;20197;-86
2022/09/26 09:40:41;;;;;;;2.13;1.60;;;;;;;;;;4997266;28;20038;-86
2022/09/26 09:43:34;;;;;;;2.42;1.80;;;;;;;;;;4980275;28;20035;-86
2022/09/26 09:46:10;;;;;;;3.13;1.50;;;;;;;;;;4963584;28;20030;-86
2022/09/26 09:48:35;;;;;;;3.85;1.60;;;;;;;;;;4979891;28;20042;-86
2022/09/26 09:51:32;;;;;;;6.20;1.95;;;;;;;;;;4982242;28;20037;-86
2022/09/26 09:54:09;;;;;;;3.25;2.00;;;;;;;;;;4983327;28;20038;-85
2022/09/26 09:56:58;;;;;;;4.03;1.70;;;;;;;;;;4984065;28;20034;-86
2022/09/26 09:59:50;;;;;;;1.90;1.55;;;;;;;;;;4984095;28;20513;-86
2022/09/26 10:02:23;;;;;;;2.08;1.75;;;;;;;;;;4983894;28;20067;-86
2022/09/26 10:05:22;;;;;;;3.40;1.60;;;;;;;;;;4983744;28;20038;-86
2022/09/26 10:07:57;;;;;;;5.20;1.60;;;;;;;;;;4983785;28;20034;-85
2022/09/26 10:11:04;;;;;;;;;;;;;;;;;;4971773;28;20038;-85
2022/09/26 10:13:55;;;;;;;2.13;1.48;;;;;;;;;;4955826;28;19913;-87
2022/09/26 10:17:08;;;;;;;2.45;1.50;;;;;;;;;;4986798;28;20045;-86
2022/09/26 10:19:42;;;;;;;2.47;1.58;;;;;;;;;;4984055;28;20052;-86
2022/09/26 10:22:24;;;;;;;1.75;1.50;;;;;;;;;;4983526;28;20399;-86
2022/09/26 10:24:58;;;;;;;1.95;1.40;;;;;;;;;;4983267;28;20030;-87
2022/09/26 10:27:37;;;;;;;2.15;1.33;;;;;;;;;;4983494;28;20030;-88
2022/09/26 10:30:19;;;;;;;1.63;1.30;;;;;;;;;;4982173;28;20495;-87
2022/09/26 10:32:49;;;;;;;2.10;1.80;;;;;;;;;;4982382;28;20410;-86
2022/09/26 10:35:41;;;;;;;3.03;1.30;;;;;;;;;;4999258;28;20049;-87
2022/09/26 10:38:26;;;;;;;1.88;1.50;;;;;;;;;;4981797;28;20117;-87
2022/09/26 10:41:21;;;;;;;1.88;1.30;;;;;;;;;;4982305;28;20118;-87
2022/09/26 10:43:53;;;;;;;3.58;1.40;;;;;;;;;;4981925;28;20058;-87
2022/09/26 10:46:37;;;;;;;2.05;1.40;;;;;;;;;;4999568;28;20068;-87
2022/09/26 10:49:26;;;;;;;1.75;1.30;;;;;;;;;;4984979;28;20557;-87
2022/09/26 10:52:24;;;;;;;1.80;1.30;;;;;;;;;;4999230;28;20273;-87
2022/09/26 10:55:03;;;;;;;2.03;1.40;;;;;;;;;;4981347;28;20475;-86
2022/09/26 10:57:36;;;;;;;1.77;1.30;;;;;;;;;;4981748;28;20041;-86
2022/09/26 11:00:05;;;;;;;1.90;1.35;;;;;;;;;;4982156;28;20554;-87
2022/09/26 11:02:31;;;;;;;1.73;1.25;;;;;;;;;;4980792;28;20041;-87
2022/09/26 11:07:55;;;;;;;1.73;1.35;;;;;;;;;;4999364;28;20043;-87
2022/09/26 11:10:47;;;;;;;1.90;1.33;;;;;;;;;;4988514;28;20042;-86
2022/09/26 11:13:31;;;;;;;1.77;1.30;;;;;;;;;;4965977;28;20113;-87
2022/09/26 11:16:12;;;;;;;2.55;1.50;;;;;;;;;;4965689;28;20120;-87
2022/09/26 11:19:01;;;;;;;3.03;1.77;;;;;;;;;;4965446;28;20033;-87
2022/09/26 11:21:40;;;;;;;2.72;1.50;;;;;;;;;;4980685;28;20048;-84
2022/09/26 11:24:24;;;;;;;4.28;1.50;;;;;;;;;;4981344;28;20034;-84
2022/09/26 11:27:22;;;;;;;1.90;1.60;;;;;;;;;;4962222;28;20081;-82
2022/09/26 11:30:00;;;;;;;2.05;1.52;;;;;;;;;;4978852;28;20081;-84
2022/09/26 11:32:28;;;;;;;2.55;1.60;;;;;;;;;;4961500;28;20077;-84
2022/09/26 11:35:16;;;;;;;2.60;1.75;;;;;;;;;;4978415;28;20037;-84
2022/09/26 11:38:02;;;;;;;3.30;1.67;;;;;;;;;;4961418;28;20037;-83
2022/09/26 11:40:40;;;;;;;2.80;1.70;;;;;;;;;;4961124;28;20030;-84
2022/09/26 11:43:23;;;;;;;2.10;1.75;;;;;;;;;;4978651;28;20038;-83
2022/09/26 11:46:24;;;;;;;2.50;1.60;;;;;;;;;;4961188;28;20041;-83
2022/09/26 11:49:19;;;;;;;2.55;1.88;;;;;;;;;;4960971;28;20034;-84
2022/09/26 11:52:32;;;;;;;1.95;1.60;;;;;;;;;;4971931;28;20022;-85
2022/09/26 11:55:15;;;;;;;4.43;2.00;;;;;;;;;;4997829;28;20490;-83
2022/09/26 11:57:48;;;;;;;2.30;1.63;;;;;;;;;;4998559;28;20030;-83
2022/09/26 12:00:29;;;;;;;1.63;1.35;;;;;;;;;;4997985;28;20069;-83
2022/09/26 12:03:15;;;;;;;2.38;1.40;;;;;;;;;;4997051;28;20026;-82
2022/09/26 12:05:47;;;;;;;1.90;1.50;;;;;;;;;;4996506;28;20498;-82
2022/09/26 12:08:46;;;;;;;1.80;1.48;;;;;;;;;;4996791;28;20033;-81
2022/09/26 12:11:31;;;;;;;4.22;1.65;;;;;;;;;;4978162;28;20501;-80
2022/09/26 12:14:39;;;;;;;1.92;1.50;;;;;;;;;;4997059;28;20037;-83
2022/09/26 12:17:22;;;;;;;4.03;1.50;;;;;;;;;;4996788;28;20033;-83
2022/09/26 12:20:01;;;;;;;2.08;1.33;;;;;;;;;;4996476;28;20479;-82
2022/09/26 12:22:41;;;;;;;2.25;1.67;;;;;;;;;;4996480;28;20495;-83
2022/09/26 12:25:28;;;;;;;2.22;1.58;;;;;;;;;;4978725;28;20035;-83
2022/09/26 12:28:15;;;;;;;2.90;1.70;;;;;;;;;;4979429;28;20040;-83
2022/09/26 12:31:08;;;;;;;2.38;1.80;;;;;;;;;;4996601;28;20037;-83
2022/09/26 12:33:50;;;;;;;1.83;1.38;;;;;;;;;;4996057;28;20022;-83
2022/09/26 12:36:22;;;;;;;4.53;1.60;;;;;;;;;;4996136;28;20049;-83
2022/09/26 12:39:03;;;;;;;2.53;1.70;;;;;;;;;;4996756;28;20034;-83
2022/09/26 12:41:46;;;;;;;3.45;1.75;;;;;;;;;;4978999;28;20058;-83
2022/09/26 12:44:23;;;;;;;;;;;;;;;;;;4995647;28;20066;-81
2022/09/26 12:46:58;;;;;;;1.80;1.48;;;;;;;;;;4996254;28;19910;-83
2022/09/26 12:49:27;;;;;;;2.00;1.60;;;;;;;;;;4979236;28;20041;-83
2022/09/26 12:51:57;;;;;;;1.60;1.38;;;;;;;;;;4996646;28;20474;-83
2022/09/26 12:54:43;;;;;;;2.13;1.60;;;;;;;;;;4978365;28;20508;-81
2022/09/26 12:57:39;;;;;;;2.63;1.67;;;;;;;;;;4996901;28;20053;-82
2022/09/26 13:00:20;;;;;;;2.25;1.67;;;;;;;;;;4979129;28;20030;-82
2022/09/26 13:03:06;;;;;;;2.95;1.25;;;;;;;;;;4979970;28;20034;-85
2022/09/26 13:05:44;;;;;;;1.33;0.90;;;;;;;;;;4995776;28;20073;-83
2022/09/26 13:08:13;;;;;;;1.17;0.90;;;;;;;;;;4979136;28;20034;-84
2022/09/26 13:11:07;;;;;;;1.02;0.90;;;;;;;;;;4979183;28;20467;-82
2022/09/26 13:13:53;;;;;;;1.45;0.90;;;;;;;;;;4996170;28;20037;-85
2022/09/26 13:17:08;;;;;;;2.47;0.90;;;;;;;;;;4999123;28;20089;-83
2022/09/26 13:19:39;;;;;;;;;;;;;;;;;;4972028;28;20061;-81
2022/09/26 13:22:08;;;;;;;1.00;0.90;;;;;;;;;;4996983;28;19961;-85
2022/09/26 13:24:55;;;;;;;1.17;0.98;;;;;;;;;;4979142;28;20076;-83
2022/09/26 13:27:26;;;;;;;1.60;0.95;;;;;;;;;;4997453;28;20467;-84
2022/09/26 13:30:17;;;;;;;1.77;1.20;;;;;;;;;;4997356;28;20078;-83
2022/09/26 13:32:42;;;;;;;3.88;1.00;;;;;;;;;;4997718;28;20030;-84
2022/09/26 13:35:19;;;;;;;1.00;0.80;;;;;;;;;;4996068;28;20118;-84
2022/09/26 13:37:54;;;;;;;1.00;0.80;;;;;;;;;;4979074;28;20069;-83
2022/09/26 13:40:23;;;;;;;2.55;0.90;;;;;;;;;;4996375;28;20082;-83
2022/09/26 13:43:12;;;;;;;5.72;1.60;;;;;;;;;;4978949;28;20022;-82
2022/09/26 13:45:54;;;;;;;1.95;1.40;;;;;;;;;;4978665;28;20200;-83
2022/09/26 13:48:50;;;;;;;2.97;1.98;;;;;;;;;;4996779;28;20038;-83
2022/09/26 13:51:33;;;;;;;1.17;1.08;;;;;;;;;;4978688;28;20558;-83
2022/09/26 13:54:15;;;;;;;2.30;1.40;;;;;;;;;;4996273;28;20030;-83
2022/09/26 13:56:47;;;;;;;1.88;1.30;;;;;;;;;;4996713;28;20144;-84
2022/09/26 13:59:18;;;;;;;3.15;2.25;;;;;;;;;;4979121;28;20126;-84
2022/09/26 14:02:18;;;;;;;2.25;1.30;;;;;;;;;;4996677;28;20081;-84
2022/09/26 14:04:46;;;;;;;2.28;1.52;;;;;;;;;;4996090;28;20026;-83
2022/09/26 14:10:06;;;;;;;1.50;1.10;;;;;;;;;;4997158;28;20038;-84
2022/09/26 14:13:02;;;;;;;1.05;0.80;;;;;;;;;;4996341;28;20030;-83
2022/09/26 14:15:47;;;;;;;1.95;1.10;;;;;;;;;;4997296;28;20074;-85
2022/09/26 14:18:32;;;;;;;1.38;1.00;;;;;;;;;;4998554;28;20026;-86
2022/09/26 14:21:05;;;;;;;1.50;1.00;;;;;;;;;;4981053;28;20034;-85
2022/09/26 14:23:44;;;;;;;1.90;1.45;;;;;;;;;;4998531;28;20037;-85
2022/09/26 14:26:10;;;;;;;2.10;1.40;;;;;;;;;;4997892;28;20061;-85
2022/09/26 14:28:37;;;;;;;3.38;1.80;;;;;;;;;;4998704;28;20471;-84
2022/09/26 14:31:21;;;;;;;2.50;1.88;;;;;;;;;;4997985;28;20034;-85
2022/09/26 14:33:49;;;;;;;2.03;1.60;;;;;;;;;;4997792;28;20034;-84
2022/09/26 14:36:32;;;;;;;1.80;1.30;;;;;;;;;;4979996;28;20034;-84
2022/09/26 14:38:58;;;;;;;1.30;1.10;;;;;;;;;;5000969;28;20062;-86
2022/09/26 14:41:28;;;;;;;2.80;1.80;;;;;;;;;;4984720;28;20037;-85
2022/09/26 14:44:01;;;;;;;8.55;5.32;;;;;;;;;;4984553;28;20031;-85
2022/09/26 14:46:28;;;;;;;6.45;5.00;;;;;;;;;;5001759;28;20113;-85
2022/09/26 14:49:06;;;;;;;7.18;5.20;;;;;;;;;;5002451;28;20038;-85
2022/09/26 14:51:36;;;;;;;3.72;2.50;;;;;;;;;;4984903;28;20038;-84
2022/09/26 14:54:22;;;;;;;5.15;3.50;;;;;;;;;;5001672;28;20561;-85
2022/09/26 14:56:58;;;;;;;3.20;2.20;;;;;;;;;;4985424;28;20030;-84
2022/09/26 14:59:23;;;;;;;11.00;7.80;;;;;;;;;;4984811;28;20034;-85
2022/09/26 15:02:15;;;;;;;3.22;2.53;;;;;;;;;;5002515;28;20034;-85
2022/09/26 15:04:44;;;;;;;2.20;1.80;;;;;;;;;;4957440;28;20052;-85
2022/09/26 15:07:32;;;;;;;3.08;1.80;;;;;;;;;;5001979;28;20064;-86
2022/09/26 15:10:04;;;;;;;1.70;1.35;;;;;;;;;;4999690;28;20030;-84
2022/09/26 15:12:51;;;;;;;2.30;1.80;;;;;;;;;;4980068;28;20022;-83
2022/09/26 15:15:47;;;;;;;6.07;3.40;;;;;;;;;;4998666;28;20442;-84
2022/09/26 15:18:15;;;;;;;2.53;1.85;;;;;;;;;;4997108;28;20479;-84
2022/09/26 15:20:46;;;;;;;1.95;1.45;;;;;;;;;;4997396;28;20034;-86
2022/09/26 15:23:23;;;;;;;5.45;2.53;;;;;;;;;;4997280;28;20034;-84
2022/09/26 15:25:52;;;;;;;2.95;1.83;;;;;;;;;;4996291;28;20117;-84
2022/09/26 15:28:21;;;;;;;2.58;1.85;;;;;;;;;;4996970;28;20150;-84
2022/09/26 15:31:09;;;;;;;3.83;2.45;;;;;;;;;;4996967;28;20391;-84
2022/09/26 15:33:37;;;;;;;3.03;1.60;;;;;;;;;;4979279;28;20084;-84
2022/09/26 15:36:05;;;;;;;2.50;1.63;;;;;;;;;;4995933;28;20066;-84
2022/09/26 15:38:31;;;;;;;3.30;1.52;;;;;;;;;;4997086;28;20026;-84
2022/09/26 15:41:01;;;;;;;2.85;1.70;;;;;;;;;;4996860;28;20030;-84
2022/09/26 15:43:33;;;;;;;4.40;1.90;;;;;;;;;;4979482;28;20034;-84
2022/09/26 15:45:59;;;;;;;2.80;1.88;;;;;;;;;;4996504;28;20176;-84
2022/09/26 15:48:33;;;;;;;2.72;1.98;;;;;;;;;;4996002;28;20169;-84
2022/09/26 15:50:58;;;;;;;2.75;1.95;;;;;;;;;;4996754;28;20376;-83
2022/09/26 15:53:41;;;;;;;2.65;2.03;;;;;;;;;;4996497;28;20498;-84
2022/09/26 15:56:08;;;;;;;2.78;2.22;;;;;;;;;;4995821;28;20068;-84
2022/09/26 15:58:40;;;;;;;3.83;2.50;;;;;;;;;;4979033;28;20026;-84